Syracuse Hancock International Airport
KSYR : now visible

Airfield :











YOU CAN JOIN US ON...

 
LOGIN :

Register | Disclaimer

   EN    FR    IT 

 









Legend :    VFR   Marginal VFR   IFR   Intensive IFR   Very Intensive IFR
Visi :
Ceiling :
>= 8 km
>= 3000ft
5 to 8 km
1000 to 3000 ft
1500m to 5 km
500 to 1000 ft
800 to 1500m
200 to 500 ft
< 800m
< 200 ft
Symbols :   Thunderstorms  Fog  Heavy snow  Heavy precipitations  Wind > 20 kt






- Airport Elevation : 421 ft
- IATA code : SYR


KSYR - Syracuse Hancock International

CURRENT METAR :
  • 282306Z 30014G21KT 10SM -RASN BKN013 BKN021 OVC027 03/00 A2959 RMK AO2 SNB06 PRESRR P0000 T00280000 $

EXPIRED METARs :
  • 282247Z 32015G26KT 8SM -RA FEW013 BKN027 OVC050 04/01 A2955 RMK AO2 PK WND 25043/2157 PLB2157E05SNB32E45 CIG 022 NW P0009 T00390006 $
  • 282233Z 27018G31KT 3SM -RASN SCT033 OVC050 04/01 A2954 RMK AO2 PK WND 25043/2157 PLB2157E05SNB32 CIG 030 NW P0005 T00440006 $
  • 282219Z 26019G36KT 3SM -RA FEW035 OVC050 05/01 A2951 RMK AO2 PK WND 25043/2157 SFC VIS 5 PLB2157E05 P0005 T00500011 $
  • 282157Z 26026G44KT 1SM R28/P6000FT PLRA FEW019 BKN039 OVC046 06/02 A2948 RMK AO2 PK WND 25043/2157 PLB57 P0000 T00610022 $
  • 282138Z 26027G47KT 3SM -RA FEW014 BKN022 OVC040 08/04 A2941 RMK AO2 PK WND 27047/2134 WSHFT 2046 P0013 T00780039 $
  • 282125Z 26032G46KT 2 1/2SM RA FEW014 BKN020 OVC025 09/06 A2941 RMK AO2 PK WND 25046/2122 WSHFT 2046 P0013 T00890056 $
  • 282105Z 27024G44KT 1SM R28/5500VP6000FT +RA BKN023 BKN043 OVC095 11/08 A2936 RMK AO2 PK WND 26044/2057 WSHFT 2046 PRESRR P0006 T01110078 $
  • 282057Z 26034G44KT 1SM R28/P6000FT RA SCT046 BKN060 OVC080 15/10 A2934 RMK AO2 PK WND 26044/2057 PRESRR P0000 T01500100
  • 281954Z 20016G26KT 10SM FEW030 BKN080 BKN110 OVC200 17/11 A2928 RMK AO2 PK WND 18030/1857 SLP911 T01720106
  • 281854Z 18016G26KT 10SM FEW030 BKN080 BKN110 OVC200 17/11 A2929 RMK AO2 PK WND 16033/1806 SLP913 T01670106

TAF KSYR
Valid from the 28 at 18:00 until the 29 at 18:00 UTC


281735Z 2818/2918 17014G32KT P6SM SCT035 BKN060
FM282000 20020G35KT 4SM SHRA BR OVC030
TEMPO 2820/2822 27030G45KT 2SM TSRA BKN018 OVC025CB
FM282300 27025G40KT P6SM VCSH OVC018
FM290300 28027G45KT 2SM -SHSN OVC015
FM290600 30020G35KT 1/2SM SHSN BLSN VV009
FM291300 30015G23KT 2SM -SHSN BR OVC025
KZBW FIR / North America



MET'MAP, your aeronautical weather chart ! - Copyright ORBIFLY December 2007 - Disclaimer

ORBIFLY MET'MAP TEAM :

Programming & Development : Alexandra Zaïnal
Original concept : Baudouin d'Aumeries
Technical & hardware support : Manuel Goepfert
Assistance : Marc-Olivier Méhu




SOURCES & CREDITS :

   NOAA       Earth
Advisory